createdAt,value
2023-03-13T00:01:30.665Z,99484.78
2023-03-13T00:03:57.400Z,99478.66
2023-03-13T00:06:26.564Z,99469.88
2023-03-13T00:08:54.484Z,99463.72
2023-03-13T00:11:21.010Z,99461.06
2023-03-13T00:13:47.453Z,99461.06
2023-03-13T00:16:16.594Z,99465.47
2023-03-13T00:18:48.045Z,99463.75
2023-03-13T00:21:15.096Z,99459.34
2023-03-13T00:23:41.584Z,99465.50
2023-03-13T00:26:11.225Z,99447.03
2023-03-13T00:28:39.689Z,99443.56
2023-03-13T00:31:26.876Z,99440.91
2023-03-13T00:33:58.652Z,99432.16
2023-03-13T00:36:28.791Z,99433.91
2023-03-13T00:38:56.344Z,99435.66
2023-03-13T00:41:25.364Z,99434.78
2023-03-13T00:43:53.429Z,99431.28
2023-03-13T00:46:23.059Z,99428.66
2023-03-13T00:48:50.045Z,99425.16
2023-03-13T00:51:18.294Z,99426.03
2023-03-13T00:53:46.107Z,99417.22
2023-03-13T00:56:15.127Z,99412.84
2023-03-13T00:58:43.462Z,99417.22
2023-03-13T01:01:17.032Z,99406.69
2023-03-13T01:03:46.819Z,99411.09
2023-03-13T01:06:16.632Z,99400.56
2023-03-13T01:08:43.433Z,99393.53
2023-03-13T01:11:13.885Z,99393.53
2023-03-13T01:13:40.929Z,99384.72
2023-03-13T01:16:11.700Z,99375.94
2023-03-13T01:18:40.335Z,99377.69
2023-03-13T01:21:07.489Z,99387.34
2023-03-13T01:23:34.287Z,99379.44
2023-03-13T01:26:00.769Z,99377.69
2023-03-13T01:28:27.638Z,99373.31
2023-03-13T01:30:54.719Z,99376.84
2023-03-13T01:33:21.364Z,99368.03
2023-03-13T01:35:47.936Z,99365.41
2023-03-13T01:38:14.961Z,99363.66
2023-03-13T01:40:49.093Z,99362.75
2023-03-13T01:43:27.734Z,99365.44
2023-03-13T01:46:16.198Z,99346.97
2023-03-13T01:49:13.163Z,99336.44
2023-03-13T01:52:19.169Z,99330.31
2023-03-13T01:55:08.415Z,99329.41
2023-03-13T01:57:42.810Z,99327.66
2023-03-13T02:00:11.965Z,99325.00
2023-03-13T02:02:45.459Z,99312.72
2023-03-13T02:05:15.198Z,99308.31
2023-03-13T02:07:45.786Z,99303.06
2023-03-13T02:10:14.687Z,99302.19
2023-03-13T02:12:42.142Z,99283.72
2023-03-13T02:15:13.957Z,99279.34
2023-03-13T02:17:41.374Z,99289.00
2023-03-13T02:20:08.951Z,99269.66
2023-03-13T02:23:14.097Z,99267.03
2023-03-13T02:25:47.614Z,99259.13
2023-03-13T02:28:35.632Z,99250.34
2023-03-13T02:31:06.680Z,99243.28
2023-03-13T02:33:39.805Z,99246.81
2023-03-13T02:36:08.142Z,99235.38
2023-03-13T02:38:42.536Z,99231.88
2023-03-13T02:41:09.919Z,99231.00
2023-03-13T02:43:38.244Z,99229.25
2023-03-13T02:46:07.450Z,99223.97
2023-03-13T02:48:57.023Z,99230.13
2023-03-13T02:51:41.678Z,99222.22
2023-03-13T02:54:14.247Z,99216.06
2023-03-13T02:56:44.194Z,99221.34
2023-03-13T02:59:11.888Z,99219.59
2023-03-13T03:01:42.077Z,99206.41
2023-03-13T03:04:08.812Z,99202.88
2023-03-13T03:06:35.600Z,99193.19
2023-03-13T03:09:04.043Z,99188.81
2023-03-13T03:11:33.822Z,99181.78
2023-03-13T03:14:05.615Z,99180.06
2023-03-13T03:16:37.593Z,99173.91
2023-03-13T03:19:06.472Z,99175.66
2023-03-13T03:21:33.744Z,99166.00
2023-03-13T03:24:00.241Z,99156.31
2023-03-13T03:26:27.109Z,99145.78
2023-03-13T03:28:53.904Z,99137.88
2023-03-13T03:31:20.604Z,99134.38
2023-03-13T03:33:47.599Z,99120.31
2023-03-13T03:36:19.134Z,99121.19
2023-03-13T03:38:46.358Z,99123.81
2023-03-13T03:41:16.440Z,99115.03
2023-03-13T03:43:43.528Z,99107.13
2023-03-13T03:46:12.230Z,99100.06
2023-03-13T03:48:38.901Z,99090.41
2023-03-13T03:51:07.788Z,99085.13
2023-03-13T03:53:38.062Z,99077.22
2023-03-13T03:56:04.803Z,99066.69
2023-03-13T03:58:31.419Z,99057.03
2023-03-13T04:01:05.741Z,99047.38
2023-03-13T04:03:32.676Z,99050.00
2023-03-13T04:05:59.512Z,99044.72
2023-03-13T04:08:26.270Z,99023.66
2023-03-13T04:10:53.133Z,99021.00
2023-03-13T04:13:22.367Z,99010.47
2023-03-13T04:15:49.568Z,99002.53
2023-03-13T04:18:17.106Z,99008.66
2023-03-13T04:20:44.260Z,99013.94
2023-03-13T04:23:11.065Z,99013.94
2023-03-13T04:25:38.191Z,99006.03
2023-03-13T04:28:08.893Z,98992.84
2023-03-13T04:30:41.093Z,98998.16
2023-03-13T04:33:19.311Z,98987.59
2023-03-13T04:36:00.723Z,98985.81
2023-03-13T04:38:45.592Z,98970.88
2023-03-13T04:41:51.187Z,98971.78
2023-03-13T04:44:31.505Z,98971.78
2023-03-13T04:47:07.971Z,98969.97
2023-03-13T04:49:46.106Z,98965.59
2023-03-13T04:52:31.219Z,98963.84
2023-03-13T04:55:11.806Z,98952.41
2023-03-13T04:57:45.091Z,98954.16
2023-03-13T05:00:24.341Z,98940.97
2023-03-13T05:03:09.756Z,98933.03
2023-03-13T05:05:50.293Z,98927.75
2023-03-13T05:08:51.885Z,98925.13
2023-03-13T05:11:53.668Z,98912.78
2023-03-13T05:14:46.332Z,98917.19
2023-03-13T05:17:24.824Z,98918.91
2023-03-13T05:20:11.465Z,98905.72
2023-03-13T05:23:00.828Z,98903.97
2023-03-13T05:25:48.817Z,98890.78
2023-03-13T05:28:31.907Z,98889.03
2023-03-13T05:31:16.986Z,98876.72
2023-03-13T05:33:57.724Z,98857.38
2023-03-13T05:36:40.523Z,98845.09
2023-03-13T05:39:26.587Z,98851.22
2023-03-13T05:42:18.615Z,98854.72
2023-03-13T05:44:59.301Z,98846.81
2023-03-13T05:47:54.405Z,98852.06
2023-03-13T05:50:33.923Z,98849.41
2023-03-13T05:53:26.612Z,98839.72
2023-03-13T05:56:15.777Z,98836.19
2023-03-13T05:59:01.667Z,98833.53
2023-03-13T06:01:28.463Z,98842.31
2023-03-13T06:04:09.932Z,98834.38
2023-03-13T06:06:38.485Z,98833.47
2023-03-13T06:09:05.962Z,98824.66
2023-03-13T06:11:33.930Z,98827.25
2023-03-13T06:14:00.605Z,98818.47
2023-03-13T06:16:35.728Z,98805.28
2023-03-13T06:19:15.234Z,98811.41
2023-03-13T06:21:42.172Z,98808.75
2023-03-13T06:24:09.050Z,98806.06
2023-03-13T06:26:35.513Z,98817.50
2023-03-13T06:29:01.959Z,98798.97
2023-03-13T06:31:28.427Z,98798.94
2023-03-13T06:33:55.696Z,98804.19
2023-03-13T06:36:24.277Z,98808.56
2023-03-13T06:38:51.134Z,98797.63
2023-03-13T06:41:17.902Z,98790.59
2023-03-13T06:43:44.733Z,98797.81
2023-03-13T06:46:22.792Z,98797.28
2023-03-13T06:48:50.185Z,98800.63
2023-03-13T06:51:19.435Z,98790.16
2023-03-13T06:53:46.466Z,98788.59
2023-03-13T06:56:13.267Z,98787.84
2023-03-13T06:58:40.178Z,98787.09
2023-03-13T07:01:08.099Z,98789.88
2023-03-13T07:03:35.370Z,98783.84
2023-03-13T07:06:02.096Z,98781.25
2023-03-13T07:08:28.826Z,98769.91
2023-03-13T07:10:59.893Z,98774.38
2023-03-13T07:13:26.812Z,98772.63
2023-03-13T07:15:53.847Z,98762.97
2023-03-13T07:18:21.253Z,98763.88
2023-03-13T07:20:59.155Z,98764.75
2023-03-13T07:23:27.470Z,98763.88
2023-03-13T07:26:03.065Z,98757.75
2023-03-13T07:28:35.570Z,98760.38
2023-03-13T07:31:26.567Z,98748.03
2023-03-13T07:33:56.600Z,98752.47
2023-03-13T07:36:23.761Z,98744.56
2023-03-13T07:38:51.442Z,98745.47
2023-03-13T07:41:18.898Z,98739.25
2023-03-13T07:43:46.598Z,98730.41
2023-03-13T07:46:18.484Z,98731.19
2023-03-13T07:48:45.703Z,98730.22
2023-03-13T07:51:15.233Z,98731.94
2023-03-13T07:53:41.965Z,98728.34
2023-03-13T07:56:12.148Z,98730.88
2023-03-13T07:58:40.532Z,98732.56
2023-03-13T08:01:31.040Z,98728.03
2023-03-13T08:04:01.216Z,98719.94
2023-03-13T08:06:32.761Z,98722.56
2023-03-13T08:09:00.485Z,98728.69
2023-03-13T08:11:28.595Z,98724.28
2023-03-13T08:13:56.729Z,98736.56
2023-03-13T08:16:26.383Z,98733.00
2023-03-13T08:18:56.065Z,98740.06
2023-03-13T08:21:29.021Z,98744.41
2023-03-13T08:23:58.104Z,98754.94
2023-03-13T08:26:27.567Z,98748.63
2023-03-13T08:28:57.014Z,98743.19
2023-03-13T08:31:28.676Z,98747.56
2023-03-13T08:33:55.161Z,98760.69
2023-03-13T08:36:24.914Z,98749.88
2023-03-13T08:38:53.308Z,98764.91
2023-03-13T08:41:22.121Z,98770.19
2023-03-13T08:43:49.079Z,98749.94
2023-03-13T08:46:17.786Z,98761.50
2023-03-13T08:48:45.032Z,98757.94
2023-03-13T08:51:14.078Z,98762.28
2023-03-13T08:53:42.330Z,98760.56
2023-03-13T08:56:10.456Z,98758.78
2023-03-13T08:58:37.190Z,98756.91
2023-03-13T09:01:06.157Z,98736.41
2023-03-13T09:03:33.360Z,98751.16
2023-03-13T09:06:00.875Z,98738.88
2023-03-13T09:08:28.501Z,98743.31
2023-03-13T09:10:59.168Z,98739.75
2023-03-13T09:13:27.052Z,98737.13
2023-03-13T09:16:05.610Z,98734.41
2023-03-13T09:18:32.525Z,98715.63
2023-03-13T09:20:59.185Z,98711.81
2023-03-13T09:23:26.348Z,98708.97
2023-03-13T09:25:54.133Z,98700.94
2023-03-13T09:28:21.118Z,98687.59
2023-03-13T09:30:49.926Z,98684.66
2023-03-13T09:33:20.914Z,98688.03
2023-03-13T09:35:51.145Z,98690.47
2023-03-13T09:38:19.391Z,98692.72
2023-03-13T09:41:05.244Z,98695.03
2023-03-13T09:43:50.303Z,98679.47
2023-03-13T09:46:23.227Z,98663.03
2023-03-13T09:48:55.972Z,98667.22
2023-03-13T09:51:29.744Z,98671.38
2023-03-13T09:54:11.471Z,98665.19
2023-03-13T09:56:45.057Z,98663.41
2023-03-13T09:59:27.845Z,98655.25
2023-03-13T10:01:58.096Z,98645.09
2023-03-13T10:04:35.500Z,98655.22
2023-03-13T10:07:03.803Z,98656.31
2023-03-13T10:09:32.734Z,98640.41
2023-03-13T10:12:18.945Z,98656.16
2023-03-13T10:14:51.437Z,98652.06
2023-03-13T10:17:32.239Z,98652.31
2023-03-13T10:20:09.509Z,98664.16
2023-03-13T10:22:37.908Z,98666.09
2023-03-13T10:25:12.051Z,98667.25
2023-03-13T10:27:50.804Z,98662.75
2023-03-13T10:30:26.591Z,98656.31
2023-03-13T10:32:57.492Z,98653.75
2023-03-13T10:35:26.033Z,98664.66
2023-03-13T10:38:02.208Z,98663.75
2023-03-13T10:40:28.942Z,98667.22
2023-03-13T10:43:04.885Z,98662.81
2023-03-13T10:45:35.499Z,98662.81
2023-03-13T10:48:14.750Z,98662.19
2023-03-13T10:50:50.172Z,98660.66
2023-03-13T10:53:28.875Z,98666.06
2023-03-13T10:56:10.532Z,98669.63
2023-03-13T10:58:42.932Z,98661.63
2023-03-13T11:01:26.000Z,98665.97
2023-03-13T11:03:55.086Z,98664.91
2023-03-13T11:06:31.023Z,98670.19
2023-03-13T11:09:19.466Z,98666.59
2023-03-13T11:11:52.908Z,98669.25
2023-03-13T11:14:21.952Z,98669.25
2023-03-13T11:16:50.894Z,98675.34
2023-03-13T11:19:44.197Z,98683.66
2023-03-13T11:22:14.367Z,98670.59
2023-03-13T11:25:08.619Z,98674.06
2023-03-13T11:27:48.492Z,98658.75
2023-03-13T11:30:36.806Z,98643.72
2023-03-13T11:33:20.040Z,98645.91
2023-03-13T11:35:55.208Z,98639.25
2023-03-13T11:38:35.164Z,98629.81
2023-03-13T11:41:25.913Z,98631.88
2023-03-13T11:44:04.835Z,98614.25
2023-03-13T11:47:02.032Z,98616.72
2023-03-13T11:49:34.714Z,98616.47
2023-03-13T11:52:24.313Z,98606.63
2023-03-13T11:55:13.947Z,98597.19
2023-03-13T11:58:06.376Z,98594.56
2023-03-13T12:00:57.249Z,98586.81
2023-03-13T12:03:42.564Z,98585.34
2023-03-13T12:06:27.886Z,98585.19
2023-03-13T12:09:02.190Z,98580.66
2023-03-13T12:11:43.527Z,98568.59
2023-03-13T12:14:18.781Z,98567.88
2023-03-13T12:16:55.263Z,98556.94
2023-03-13T12:19:54.780Z,98565.09
2023-03-13T12:22:39.944Z,98561.00
2023-03-13T12:25:14.862Z,98559.28
2023-03-13T12:27:47.283Z,98563.09
2023-03-13T12:30:51.425Z,98554.16
2023-03-13T12:33:35.173Z,98556.66
2023-03-13T12:36:11.000Z,98551.78
2023-03-13T12:39:01.534Z,98545.00
2023-03-13T12:42:10.424Z,98554.41
2023-03-13T12:44:37.055Z,98552.75
2023-03-13T12:47:31.562Z,98548.28
2023-03-13T12:50:05.612Z,98542.84
2023-03-13T12:52:49.650Z,98521.38
2023-03-13T12:55:40.554Z,98528.06
2023-03-13T12:58:10.893Z,98528.06
2023-03-13T13:00:40.567Z,98516.00
2023-03-13T13:03:16.289Z,98521.53
2023-03-13T13:06:07.108Z,98513.50
2023-03-13T13:09:07.662Z,98522.28
2023-03-13T13:11:34.245Z,98511.28
2023-03-13T13:14:02.306Z,98509.69
2023-03-13T13:16:30.176Z,98500.13
2023-03-13T13:19:32.308Z,98486.75
2023-03-13T13:22:38.978Z,98489.94
2023-03-13T13:25:11.743Z,98485.69
2023-03-13T13:27:38.141Z,98477.38
2023-03-13T13:30:30.262Z,98479.13
2023-03-13T13:33:20.212Z,98479.34
2023-03-13T13:36:07.408Z,98463.25
2023-03-13T13:38:40.198Z,98447.75
2023-03-13T13:41:09.760Z,98458.88
2023-03-13T13:43:41.383Z,98449.94
2023-03-13T13:46:33.169Z,98438.63
2023-03-13T13:49:05.679Z,98429.44
2023-03-13T13:51:33.583Z,98442.38
2023-03-13T13:54:24.459Z,98438.38
2023-03-13T13:57:18.156Z,98434.50
2023-03-13T13:59:49.386Z,98430.56
2023-03-13T14:02:32.211Z,98444.72
2023-03-13T14:05:18.616Z,98432.16
2023-03-13T14:07:52.344Z,98423.03
2023-03-13T14:10:37.299Z,98421.66
2023-03-13T14:13:12.343Z,98415.97
2023-03-13T14:15:45.382Z,98409.72
2023-03-13T14:18:21.825Z,98399.94
2023-03-13T14:21:25.274Z,98417.06
2023-03-13T14:23:52.676Z,98418.31
2023-03-13T14:26:27.825Z,98407.69
2023-03-13T14:28:58.004Z,98413.91
2023-03-13T14:31:29.942Z,98402.53
2023-03-13T14:33:58.571Z,98398.50
2023-03-13T14:36:26.592Z,98396.31
2023-03-13T14:39:01.240Z,98399.28
2023-03-13T14:41:37.422Z,98390.63
2023-03-13T14:44:17.563Z,98395.50
2023-03-13T14:46:45.068Z,98387.06
2023-03-13T14:49:20.936Z,98391.50
2023-03-13T14:52:00.683Z,98390.69
2023-03-13T14:54:35.698Z,98392.03
2023-03-13T14:57:05.199Z,98381.72
2023-03-13T14:59:32.289Z,98384.78
2023-03-13T15:02:15.410Z,98369.56
2023-03-13T15:05:28.058Z,98371.75
2023-03-13T15:07:55.084Z,98393.00
2023-03-13T15:10:23.378Z,98384.66
2023-03-13T15:12:50.349Z,98382.72
2023-03-13T15:15:17.407Z,98374.59
2023-03-13T15:17:44.221Z,98353.28
2023-03-13T15:20:13.436Z,98362.13
2023-03-13T15:22:42.580Z,98349.72
2023-03-13T15:25:20.822Z,98345.66
2023-03-13T15:27:48.801Z,98335.44
2023-03-13T15:30:19.247Z,98337.94
2023-03-13T15:32:47.059Z,98334.31
2023-03-13T15:35:31.299Z,98346.44
2023-03-13T15:38:01.967Z,98343.06
2023-03-13T15:40:30.892Z,98336.13
2023-03-13T15:42:57.385Z,98341.75
2023-03-13T15:45:23.995Z,98325.34
2023-03-13T15:47:50.525Z,98312.66
2023-03-13T15:50:19.640Z,98315.03
2023-03-13T15:52:46.456Z,98313.78
2023-03-13T15:55:13.728Z,98298.41
2023-03-13T15:57:49.124Z,98290.81
2023-03-13T16:00:21.636Z,98297.03
2023-03-13T16:02:48.789Z,98291.91
2023-03-13T16:05:16.034Z,98283.22
2023-03-13T16:07:45.301Z,98280.69
2023-03-13T16:10:25.535Z,98281.66
2023-03-13T16:12:53.157Z,98278.09
2023-03-13T16:15:20.010Z,98267.63
2023-03-13T16:17:46.614Z,98272.06
2023-03-13T16:20:17.295Z,98275.28
2023-03-13T16:22:44.441Z,98275.22
2023-03-13T16:25:11.352Z,98267.13
2023-03-13T16:27:38.011Z,98263.81
2023-03-13T16:30:13.320Z,98258.91
2023-03-13T16:32:39.871Z,98260.41
2023-03-13T16:35:06.543Z,98253.00
2023-03-13T16:37:32.975Z,98263.28
2023-03-13T16:39:59.414Z,98253.91
2023-03-13T16:42:26.078Z,98262.16
2023-03-13T16:44:52.750Z,98260.72
2023-03-13T16:47:24.202Z,98249.41
2023-03-13T16:49:50.650Z,98248.09
2023-03-13T16:52:17.990Z,98238.59
2023-03-13T16:54:45.336Z,98246.88
2023-03-13T16:57:13.811Z,98239.16
2023-03-13T16:59:40.427Z,98248.16
2023-03-13T17:02:18.164Z,98248.22
2023-03-13T17:04:45.966Z,98247.50
2023-03-13T17:07:24.911Z,98239.72
2023-03-13T17:09:52.235Z,98234.72
2023-03-13T17:12:19.352Z,98248.28
2023-03-13T17:14:46.548Z,98242.22
2023-03-13T17:17:16.955Z,98260.19
2023-03-13T17:19:44.096Z,98266.72
2023-03-13T17:22:15.960Z,98247.41
2023-03-13T17:24:43.338Z,98233.47
2023-03-13T17:27:13.114Z,98232.00
2023-03-13T17:29:39.673Z,98237.81
2023-03-13T17:32:06.358Z,98240.91
2023-03-13T17:34:32.865Z,98245.72
2023-03-13T17:37:04.728Z,98252.28
2023-03-13T17:39:31.378Z,98254.28
2023-03-13T17:42:00.208Z,98259.03
2023-03-13T17:44:26.729Z,98254.88
2023-03-13T17:46:53.339Z,98251.50
2023-03-13T17:49:20.597Z,98240.25
2023-03-13T17:51:49.824Z,98249.19
2023-03-13T17:54:16.536Z,98240.59
2023-03-13T17:56:43.803Z,98240.78
2023-03-13T17:59:14.894Z,98237.31
2023-03-13T18:01:42.173Z,98239.22
2023-03-13T18:04:09.722Z,98235.81
2023-03-13T18:06:39.171Z,98242.03
2023-03-13T18:09:08.770Z,98242.22
2023-03-13T18:11:38.714Z,98239.78
2023-03-13T18:14:06.296Z,98234.63
2023-03-13T18:16:38.210Z,98218.88
2023-03-13T18:19:06.536Z,98224.31
2023-03-13T18:21:34.097Z,98226.28
2023-03-13T18:24:00.615Z,98222.81
2023-03-13T18:26:32.371Z,98219.31
2023-03-13T18:29:00.830Z,98222.00
2023-03-13T18:31:32.513Z,98219.34
2023-03-13T18:33:59.847Z,98233.44
2023-03-13T18:36:27.695Z,98229.94
2023-03-13T18:38:54.915Z,98242.41
2023-03-13T18:41:22.030Z,98244.06
2023-03-13T18:43:49.042Z,98244.06
2023-03-13T18:46:24.069Z,98237.16
2023-03-13T18:48:50.930Z,98244.38
2023-03-13T18:51:18.936Z,98235.59
2023-03-13T18:53:46.671Z,98241.97
2023-03-13T18:56:22.098Z,98248.38
2023-03-13T18:58:50.696Z,98246.72
2023-03-13T19:01:20.761Z,98245.91
2023-03-13T19:03:47.645Z,98230.09
2023-03-13T19:06:27.775Z,98236.53
2023-03-13T19:08:57.572Z,98233.16
2023-03-13T19:11:30.267Z,98229.75
2023-03-13T19:13:57.518Z,98241.22
2023-03-13T19:16:30.324Z,98232.47
2023-03-13T19:18:58.235Z,98217.47
2023-03-13T19:21:26.863Z,98196.34
2023-03-13T19:23:54.376Z,98176.16
2023-03-13T19:26:29.706Z,98175.44
2023-03-13T19:28:56.777Z,98158.69
2023-03-13T19:31:23.450Z,98174.69
2023-03-13T19:33:50.596Z,98170.38
2023-03-13T19:36:19.166Z,98158.25
2023-03-13T19:38:45.771Z,98160.06
2023-03-13T19:41:13.551Z,98143.41
2023-03-13T19:43:40.719Z,98152.38
2023-03-13T19:46:28.402Z,98149.84
2023-03-13T19:48:57.216Z,98148.13
2023-03-13T19:51:24.615Z,98137.66
2023-03-13T19:53:51.146Z,98135.91
2023-03-13T19:56:20.186Z,98157.97
2023-03-13T19:58:49.365Z,98169.47
2023-03-13T20:01:17.902Z,98173.78
2023-03-13T20:03:45.869Z,98164.09
2023-03-13T20:06:23.942Z,98171.19
2023-03-13T20:08:55.244Z,98160.47
2023-03-13T20:11:22.510Z,98162.22
2023-03-13T20:13:49.205Z,98165.69
2023-03-13T20:16:16.149Z,98164.75
2023-03-13T20:18:48.580Z,98163.88
2023-03-13T20:21:16.502Z,98162.97
2023-03-13T20:23:44.991Z,98167.34
2023-03-13T20:26:13.377Z,98163.84
2023-03-13T20:28:42.764Z,98183.19
2023-03-13T20:31:09.669Z,98179.66
2023-03-13T20:33:36.966Z,98194.75
2023-03-13T20:36:07.257Z,98188.50
2023-03-13T20:38:34.841Z,98184.19
2023-03-13T20:41:02.004Z,98176.25
2023-03-13T20:43:29.244Z,98183.31
2023-03-13T20:45:55.824Z,98200.22
2023-03-13T20:48:22.958Z,98187.97
2023-03-13T20:50:52.344Z,98179.19
2023-03-13T20:53:20.101Z,98176.59
2023-03-13T20:55:46.916Z,98189.03
2023-03-13T20:58:13.352Z,98206.66
2023-03-13T21:00:40.678Z,98208.50
2023-03-13T21:03:07.210Z,98190.97
2023-03-13T21:05:38.190Z,98190.16
2023-03-13T21:08:04.718Z,98183.97
2023-03-13T21:10:31.251Z,98183.22
2023-03-13T21:12:57.772Z,98185.00
2023-03-13T21:15:24.246Z,98177.91
2023-03-13T21:17:50.777Z,98175.25
2023-03-13T21:20:17.258Z,98169.13
2023-03-13T21:22:44.005Z,98163.78
2023-03-13T21:25:11.593Z,98164.66
2023-03-13T21:27:38.961Z,98164.66
2023-03-13T21:30:07.739Z,98163.84
2023-03-13T21:32:38.890Z,98186.97
2023-03-13T21:35:06.961Z,98178.25
2023-03-13T21:37:33.813Z,98179.22
2023-03-13T21:40:00.401Z,98167.84
2023-03-13T21:42:27.096Z,98153.84
2023-03-13T21:44:53.928Z,98165.34
2023-03-13T21:47:26.987Z,98153.13
2023-03-13T21:49:54.707Z,98153.22
2023-03-13T21:52:22.389Z,98156.06
2023-03-13T21:54:49.486Z,98168.53
2023-03-13T21:57:16.230Z,98161.53
2023-03-13T21:59:42.990Z,98163.41
2023-03-13T22:02:13.470Z,98162.69
2023-03-13T22:04:40.525Z,98167.22
2023-03-13T22:07:06.988Z,98182.41
2023-03-13T22:09:33.695Z,98160.47
2023-03-13T22:12:00.293Z,98174.78
2023-03-13T22:14:27.992Z,98165.25
2023-03-13T22:16:54.754Z,98163.59
2023-03-13T22:19:21.515Z,98153.09
2023-03-13T22:21:47.940Z,98133.88
2023-03-13T22:24:14.437Z,98127.88
2023-03-13T22:26:41.076Z,98120.00
2023-03-13T22:29:07.614Z,98103.28
2023-03-13T22:31:34.124Z,98094.63
2023-03-13T22:34:00.669Z,98088.59
2023-03-13T22:36:27.121Z,98071.13
2023-03-13T22:38:53.599Z,98066.75
2023-03-13T22:41:20.166Z,98063.28
2023-03-13T22:43:46.857Z,98075.69
2023-03-13T22:46:13.977Z,98072.22
2023-03-13T22:48:40.871Z,98067.00
2023-03-13T22:51:12.890Z,98068.75
2023-03-13T22:53:41.619Z,98072.28
2023-03-13T22:56:12.816Z,98073.16
2023-03-13T22:58:40.627Z,98074.16
2023-03-13T23:01:08.957Z,98084.81
2023-03-13T23:03:36.128Z,98091.97
2023-03-13T23:06:14.666Z,98107.88
2023-03-13T23:08:43.524Z,98107.97
2023-03-13T23:11:10.742Z,98124.69
2023-03-13T23:13:37.237Z,98114.16
2023-03-13T23:16:11.219Z,98114.16
2023-03-13T23:18:38.327Z,98107.09
2023-03-13T23:21:06.834Z,98094.81
2023-03-13T23:23:33.292Z,98083.38
2023-03-13T23:26:00.965Z,98087.75
2023-03-13T23:28:27.989Z,98079.78
2023-03-13T23:30:54.810Z,98073.59
2023-03-13T23:33:21.428Z,98056.78
2023-03-13T23:35:47.981Z,98057.66
2023-03-13T23:38:18.220Z,98078.00
2023-03-13T23:40:44.886Z,98094.84
2023-03-13T23:43:11.487Z,98092.22
2023-03-13T23:45:37.931Z,98108.09
2023-03-13T23:48:04.775Z,98108.09
2023-03-13T23:50:31.337Z,98106.31
2023-03-13T23:52:57.810Z,98110.72
2023-03-13T23:55:24.265Z,98118.66
2023-03-13T23:57:50.732Z,98105.44
